createdAt,value
2022-10-12T00:00:02.612Z,1027.08
2022-10-12T00:05:02.243Z,1027.06
2022-10-12T00:10:02.986Z,1027.19
2022-10-12T00:15:02.636Z,1027.1
2022-10-12T00:20:02.295Z,1027.17
2022-10-12T00:25:03.153Z,1027.12
2022-10-12T00:30:05.113Z,1027.2
2022-10-12T00:35:02.839Z,1027.01
2022-10-12T00:40:03.184Z,1027.13
2022-10-12T00:45:02.917Z,1027.14
2022-10-12T00:50:02.511Z,1027.17
2022-10-12T00:55:04.497Z,1027.12
2022-10-12T01:00:02.674Z,1027.09
2022-10-12T01:05:02.461Z,1027.11
2022-10-12T01:10:03.023Z,1027.04
2022-10-12T01:15:02.544Z,1027.13
2022-10-12T01:20:03.079Z,1027.14
2022-10-12T01:25:02.829Z,1027.14
2022-10-12T01:30:02.496Z,1027.18
2022-10-12T01:35:02.963Z,1027.24
2022-10-12T01:40:02.593Z,1027.17
2022-10-12T01:45:02.561Z,1027.03
2022-10-12T01:50:02.605Z,1027.15
2022-10-12T01:55:03.430Z,1027.16
2022-10-12T02:00:02.784Z,1027.15
2022-10-12T02:05:02.493Z,1027.21
2022-10-12T02:10:03.179Z,1027.2
2022-10-12T02:15:02.830Z,1027.16
2022-10-12T02:20:02.487Z,1027.1
2022-10-12T02:25:02.347Z,1027.1
2022-10-12T02:30:03.021Z,1027.07
2022-10-12T02:35:02.622Z,1027.05
2022-10-12T02:40:02.433Z,1027.07
2022-10-12T02:45:03.074Z,1026.92
2022-10-12T02:50:02.834Z,1026.9
2022-10-12T02:55:03.864Z,1026.89
2022-10-12T03:00:03.192Z,1026.85
2022-10-12T03:05:02.808Z,1026.79
2022-10-12T03:10:02.419Z,1026.82
2022-10-12T03:15:03.212Z,1026.82
2022-10-12T03:20:02.857Z,1026.8
2022-10-12T03:25:02.461Z,1026.81
2022-10-12T03:30:02.335Z,1026.83
2022-10-12T03:35:03.024Z,1026.8
2022-10-12T03:40:02.889Z,1026.85
2022-10-12T03:45:02.717Z,1026.83
2022-10-12T03:50:02.295Z,1026.78
2022-10-12T03:55:04.213Z,1026.75
2022-10-12T04:00:02.831Z,1026.7
2022-10-12T04:05:02.644Z,1026.71
2022-10-12T04:10:02.302Z,1026.69
2022-10-12T04:15:02.970Z,1026.79
2022-10-12T04:20:02.725Z,1026.75
2022-10-12T04:25:02.649Z,1026.72
2022-10-12T04:30:02.550Z,1026.77
2022-10-12T04:35:03.041Z,1026.69
2022-10-12T04:40:02.781Z,1026.77
2022-10-12T04:45:02.554Z,1026.75
2022-10-12T04:50:03.165Z,1026.73
2022-10-12T05:00:02.390Z,1026.91
2022-10-12T05:05:03.084Z,1026.89
2022-10-12T05:10:02.753Z,1026.91
2022-10-12T05:15:02.465Z,1026.87
2022-10-12T05:20:03.179Z,1026.87
2022-10-12T05:25:02.852Z,1026.85
2022-10-12T05:30:02.652Z,1026.86
2022-10-12T05:35:02.332Z,1026.9
2022-10-12T05:40:03.140Z,1026.84
2022-10-12T05:45:02.885Z,1027.02
2022-10-12T05:50:02.584Z,1026.89
2022-10-12T05:55:03.731Z,1026.97
2022-10-12T06:00:02.949Z,1027.01
2022-10-12T06:05:02.541Z,1026.95
2022-10-12T06:10:02.257Z,1026.91
2022-10-12T06:15:02.936Z,1026.9
2022-10-12T06:20:02.625Z,1027.03
2022-10-12T06:25:02.386Z,1027.04
2022-10-12T06:30:02.997Z,1027.04
2022-10-12T06:35:02.561Z,1027.05
2022-10-12T06:40:02.220Z,1027.16
2022-10-12T06:45:02.951Z,1027.1
2022-10-12T06:50:02.525Z,1027.19
2022-10-12T06:55:03.682Z,1027.21
2022-10-12T07:00:02.863Z,1027.25
2022-10-12T07:05:02.526Z,1027.39
2022-10-12T07:10:02.229Z,1027.45
2022-10-12T07:15:02.903Z,1027.38
2022-10-12T07:20:02.607Z,1027.36
2022-10-12T07:25:02.214Z,1027.45
2022-10-12T07:30:02.925Z,1027.35
2022-10-12T07:35:02.832Z,1027.42
2022-10-12T07:40:02.616Z,1027.32
2022-10-12T07:45:03.144Z,1027.31
2022-10-12T07:50:02.735Z,1027.35
2022-10-12T07:55:03.786Z,1027.34
2022-10-12T08:00:03.141Z,1027.34
2022-10-12T08:05:02.757Z,1027.31
2022-10-12T08:10:02.404Z,1027.36
2022-10-12T08:15:02.926Z,1027.35
2022-10-12T08:20:02.548Z,1027.37
2022-10-12T08:25:03.179Z,1027.34
2022-10-12T08:30:02.847Z,1027.24
2022-10-12T08:35:02.429Z,1027.1
2022-10-12T08:40:03.964Z,1026.97
2022-10-12T08:45:03.011Z,1026.92
2022-10-12T08:50:02.570Z,1026.83
2022-10-12T08:55:03.888Z,1026.88
2022-10-12T09:00:03.006Z,1026.91
2022-10-12T09:05:02.619Z,1026.84
2022-10-12T09:10:02.290Z,1026.89
2022-10-12T09:15:02.982Z,1026.81
2022-10-12T09:20:02.643Z,1026.78
2022-10-12T09:25:02.508Z,1026.85
2022-10-12T09:30:03.244Z,1026.79
2022-10-12T09:35:02.843Z,1026.67
2022-10-12T09:40:02.500Z,1026.69
2022-10-12T09:45:03.223Z,1026.63
2022-10-12T09:50:02.806Z,1026.65
2022-10-12T09:55:06.621Z,1026.63
2022-10-12T10:00:03.103Z,1026.59
2022-10-12T10:05:02.753Z,1026.54
2022-10-12T10:10:02.418Z,1026.53
2022-10-12T10:15:03.074Z,1026.54
2022-10-12T10:20:02.725Z,1026.52
2022-10-12T10:25:02.346Z,1026.6
2022-10-12T10:30:10.892Z,1026.5
2022-10-12T10:35:02.711Z,1026.52
2022-10-12T10:40:02.315Z,1026.52
2022-10-12T10:45:02.983Z,1026.49
2022-10-12T10:50:02.577Z,1026.38
2022-10-12T10:55:04.275Z,1026.25
2022-10-12T11:00:26.287Z,1026.29
2022-10-12T11:05:02.954Z,1026.12
2022-10-12T11:10:02.530Z,1026.18
2022-10-12T11:15:02.326Z,1026.02
2022-10-12T11:20:03.098Z,1025.99
2022-10-12T11:25:02.585Z,1025.98
2022-10-12T11:30:09.144Z,1025.94
2022-10-12T11:35:02.801Z,1025.85
2022-10-12T11:40:02.431Z,1025.87
2022-10-12T11:45:03.237Z,1025.77
2022-10-12T11:50:02.901Z,1025.75
2022-10-12T11:55:03.860Z,1025.71
2022-10-12T12:00:03.198Z,1025.65
2022-10-12T12:05:02.801Z,1025.66
2022-10-12T12:10:02.427Z,1025.59
2022-10-12T12:15:03.123Z,1025.43
2022-10-12T12:20:02.762Z,1025.42
2022-10-12T12:25:02.404Z,1025.37
2022-10-12T12:30:03.075Z,1025.2
2022-10-12T12:35:02.762Z,1025.27
2022-10-12T12:40:02.406Z,1025.2
2022-10-12T12:45:02.946Z,1025.2
2022-10-12T12:50:02.581Z,1025.2
2022-10-12T12:55:04.636Z,1025.15
2022-10-12T13:00:02.958Z,1025.1
2022-10-12T13:05:02.594Z,1025.06
2022-10-12T13:10:02.273Z,1024.95
2022-10-12T13:15:02.913Z,1024.97
2022-10-12T13:20:02.567Z,1024.97
2022-10-12T13:25:03.201Z,1024.86
2022-10-12T13:30:02.881Z,1024.81
2022-10-12T13:35:02.447Z,1024.81
2022-10-12T13:40:03.111Z,1024.77
2022-10-12T13:45:03.060Z,1024.69
2022-10-12T13:50:02.524Z,1024.62
2022-10-12T14:00:03.174Z,1024.48
2022-10-12T14:05:02.507Z,1024.39
2022-10-12T14:10:03.164Z,1024.33
2022-10-12T14:15:02.728Z,1024.3
2022-10-12T14:20:02.381Z,1024.27
2022-10-12T14:25:03.031Z,1024.25
2022-10-12T14:30:02.701Z,1024.24
2022-10-12T14:35:02.427Z,1024.22
2022-10-12T14:40:02.978Z,1024.2
2022-10-12T14:45:02.567Z,1024.15
2022-10-12T14:50:03.146Z,1024.1
2022-10-12T14:55:04.120Z,1024.13
2022-10-12T15:00:02.409Z,1024.14
2022-10-12T15:05:03.150Z,1024.03
2022-10-12T15:10:02.848Z,1024
2022-10-12T15:15:02.514Z,1023.95
2022-10-12T15:20:03.184Z,1023.81
2022-10-12T15:25:02.953Z,1023.87
2022-10-12T15:30:02.730Z,1023.81
2022-10-12T15:35:02.376Z,1023.8
2022-10-12T15:40:03.043Z,1023.75
2022-10-12T15:45:02.782Z,1023.73
2022-10-12T15:50:02.393Z,1023.77
2022-10-12T15:55:04.624Z,1023.74
2022-10-12T16:00:02.743Z,1023.72
2022-10-12T16:05:02.477Z,1023.7
2022-10-12T16:10:02.212Z,1023.75
2022-10-12T16:15:02.887Z,1023.66
2022-10-12T16:20:02.739Z,1023.71
2022-10-12T16:25:02.210Z,1023.67
2022-10-12T16:30:02.940Z,1023.7
2022-10-12T16:35:02.608Z,1023.59
2022-10-12T16:40:02.258Z,1023.6
2022-10-12T16:45:02.933Z,1023.6
2022-10-12T16:50:02.539Z,1023.6
2022-10-12T16:55:04.509Z,1023.59
2022-10-12T17:00:03.860Z,1023.63
2022-10-12T17:05:02.451Z,1023.61
2022-10-12T17:10:03.086Z,1023.57
2022-10-12T17:15:02.750Z,1023.55
2022-10-12T17:25:03.124Z,1023.58
2022-10-12T17:30:02.787Z,1023.68
2022-10-12T17:35:02.516Z,1023.69
2022-10-12T17:40:03.169Z,1023.61
2022-10-12T17:45:03.187Z,1023.59
2022-10-12T17:50:02.769Z,1023.51
2022-10-12T17:55:03.878Z,1023.46
2022-10-12T18:00:02.409Z,1023.39
2022-10-12T18:05:03.035Z,1023.37
2022-10-12T18:10:02.691Z,1023.38
2022-10-12T18:15:02.473Z,1023.33
2022-10-12T18:20:03.115Z,1023.37
2022-10-12T18:25:02.987Z,1023.35
2022-10-12T18:30:02.875Z,1023.28
2022-10-12T18:35:02.461Z,1023.34
2022-10-12T18:40:03.245Z,1023.2
2022-10-12T18:45:02.806Z,1023.25
2022-10-12T18:50:02.269Z,1023.36
2022-10-12T18:55:04.217Z,1023.22
2022-10-12T19:00:02.621Z,1023.29
2022-10-12T19:05:02.241Z,1023.19
2022-10-12T19:10:02.911Z,1023.2
2022-10-12T19:15:02.572Z,1023.16
2022-10-12T19:20:02.215Z,1023.17
2022-10-12T19:25:02.853Z,1023.16
2022-10-12T19:30:02.518Z,1023.16
2022-10-12T19:35:03.112Z,1023.18
2022-10-12T19:40:06.702Z,1023.08
2022-10-12T19:45:02.477Z,1022.96
2022-10-12T19:50:02.264Z,1023.03
2022-10-12T19:55:04.088Z,1022.95
2022-10-12T20:00:02.669Z,1022.93
2022-10-12T20:05:02.424Z,1022.87
2022-10-12T20:10:02.233Z,1022.84
2022-10-12T20:15:02.897Z,1022.83
2022-10-12T20:20:02.641Z,1022.82
2022-10-12T20:25:05.683Z,1022.84
2022-10-12T20:30:02.630Z,1022.73
2022-10-12T20:35:02.258Z,1022.81
2022-10-12T20:40:02.911Z,1022.76
2022-10-12T20:45:02.553Z,1022.71
2022-10-12T20:50:02.628Z,1022.57
2022-10-12T20:55:04.350Z,1022.68
2022-10-12T21:00:02.768Z,1022.72
2022-10-12T21:05:02.431Z,1022.66
2022-10-12T21:10:03.126Z,1022.6
2022-10-12T21:15:02.810Z,1022.59
2022-10-12T21:20:02.609Z,1022.62
2022-10-12T21:25:02.219Z,1022.67
2022-10-12T21:30:02.990Z,1022.59
2022-10-12T21:35:02.464Z,1022.66
2022-10-12T21:40:03.263Z,1022.73
2022-10-12T21:45:02.929Z,1022.58
2022-10-12T21:50:02.519Z,1022.71
2022-10-12T21:55:03.901Z,1022.79
2022-10-12T22:00:03.223Z,1022.65
2022-10-12T22:05:02.831Z,1022.71
2022-10-12T22:10:02.692Z,1022.77
2022-10-12T22:15:02.369Z,1022.71
2022-10-12T22:20:03.011Z,1022.81
2022-10-12T22:25:02.644Z,1022.64
2022-10-12T22:30:02.470Z,1022.64
2022-10-12T22:35:03.176Z,1022.59
2022-10-12T22:40:02.686Z,1022.65
2022-10-12T22:45:02.453Z,1022.53
2022-10-12T22:50:03.057Z,1022.52
2022-10-12T22:55:04.318Z,1022.45
2022-10-12T23:00:02.510Z,1022.47
2022-10-12T23:05:03.139Z,1022.39
2022-10-12T23:10:02.790Z,1022.47
2022-10-12T23:15:02.695Z,1022.4
2022-10-12T23:20:02.211Z,1022.37
2022-10-12T23:25:02.852Z,1022.33
2022-10-12T23:30:02.533Z,1022.36
2022-10-12T23:35:02.274Z,1022.37
2022-10-12T23:40:02.798Z,1022.47
2022-10-12T23:45:02.443Z,1022.4
2022-10-12T23:50:03.203Z,1022.22
2022-10-12T23:55:04.378Z,1022.31
